Time;durP1;ratioP1;P1;durP2;ratioP2;P2;SDS_P1;SDS_P2;PMS_P1;PMS_P2;Temp;Humidity;BMP_temperature;BMP_pressure;BME280_temperature;BME280_humidity;BME280_pressure;Samples;Min_cycle;Max_cycle;Signal;HPM_P1;HPM_P2
2020/12/23 09:16:38;;;;;;;2.92;0.60;;;19.00;80.30;;;;;;5078257;27;20365;-40
2020/12/23 09:19:04;;;;;;;2.28;0.90;;;19.00;80.60;;;;;;5062251;28;20050;-42
2020/12/23 09:21:29;;;;;;;2.80;0.90;;;19.00;80.10;;;;;;5069880;28;20411;-43
2020/12/23 09:24:05;;;;;;;2.33;1.30;;;19.10;79.70;;;;;;5059063;28;20137;-45
2020/12/23 09:26:31;;;;;;;3.00;0.95;;;19.10;80.10;;;;;;5103714;28;20101;-43
2020/12/23 09:28:56;;;;;;;1.95;0.80;;;19.10;79.30;;;;;;5074651;28;20446;-44
2020/12/23 09:31:22;;;;;;;2.72;1.17;;;19.10;79.10;;;;;;5069694;28;20043;-45
2020/12/23 09:33:47;;;;;;;3.00;0.90;;;19.10;78.90;;;;;;5078997;28;20040;-43
2020/12/23 09:36:13;;;;;;;2.40;1.15;;;19.10;78.70;;;;;;5085957;28;20402;-46
2020/12/23 09:38:40;;;;;;;2.53;0.70;;;19.10;78.40;;;;;;5082099;28;20048;-44
2020/12/23 09:41:06;;;;;;;1.75;1.00;;;19.10;78.20;;;;;;5068977;28;20036;-44
2020/12/23 09:43:34;;;;;;;1.42;1.05;;;19.20;78.90;;;;;;5077795;28;20048;-43
2020/12/23 09:46:10;;;;;;;1.58;0.70;;;19.20;78.00;;;;;;5080751;28;20048;-45
2020/12/23 09:48:35;;;;;;;2.60;1.08;;;19.10;78.00;;;;;;5081949;28;20040;-43
2020/12/23 09:51:01;;;;;;;2.60;1.00;;;19.10;77.90;;;;;;5084207;28;20047;-43
2020/12/23 09:53:27;;;;;;;1.95;0.90;;;19.10;77.90;;;;;;5081950;28;20040;-42
2020/12/23 09:55:52;;;;;;;1.10;0.95;;;19.10;77.60;;;;;;5080011;28;20098;-44
2020/12/23 09:58:18;;;;;;;1.13;0.73;;;19.20;77.40;;;;;;5081970;28;20097;-47
2020/12/23 10:00:46;;;;;;;3.58;1.38;;;19.20;77.10;;;;;;5079889;28;20044;-45
2020/12/23 10:03:12;;;;;;;6.95;0.90;;;19.20;77.10;;;;;;5080567;28;20499;-51
2020/12/23 10:05:38;;;;;;;1.48;1.33;;;19.30;77.20;;;;;;5080032;28;20048;-47
2020/12/23 10:08:03;;;;;;;1.33;1.08;;;19.30;77.10;;;;;;5078632;28;20109;-48
2020/12/23 10:10:29;;;;;;;3.83;1.42;;;19.30;77.00;;;;;;5078349;28;20048;-45
2020/12/23 10:12:55;;;;;;;0.98;0.95;;;19.30;76.80;;;;;;5078162;28;20090;-49
2020/12/23 10:15:20;;;;;;;1.27;0.93;;;19.30;76.70;;;;;;5079580;28;20511;-45
2020/12/23 10:17:46;;;;;;;2.17;1.05;;;19.40;76.70;;;;;;5080948;28;20052;-48
2020/12/23 10:20:12;;;;;;;1.92;1.08;;;19.40;76.50;;;;;;5077529;28;20465;-45
2020/12/23 10:22:38;;;;;;;1.90;0.80;;;19.40;76.50;;;;;;5083666;28;20047;-45
2020/12/23 10:25:04;;;;;;;1.88;1.23;;;19.40;77.00;;;;;;5082336;28;20044;-46
2020/12/23 10:27:30;;;;;;;4.55;1.02;;;19.40;76.30;;;;;;5071656;28;20056;-49
2020/12/23 10:29:55;;;;;;;2.65;0.90;;;19.40;76.20;;;;;;5068188;28;20052;-47
2020/12/23 10:32:21;;;;;;;1.98;1.10;;;19.40;76.20;;;;;;5066566;28;20094;-47
2020/12/23 10:34:47;;;;;;;2.17;0.95;;;19.40;76.20;;;;;;5066986;28;20527;-45
2020/12/23 10:37:19;;;;;;;3.30;0.95;;;19.40;76.40;;;;;;5070526;28;20086;-52
2020/12/23 10:39:44;;;;;;;1.08;0.90;;;19.40;77.20;;;;;;5070078;28;20045;-46
2020/12/23 10:42:11;;;;;;;4.57;0.93;;;19.40;76.50;;;;;;5070328;28;20037;-47
2020/12/23 10:44:36;;;;;;;1.02;0.93;;;19.40;76.60;;;;;;5066493;28;20461;-46
2020/12/23 10:47:02;;;;;;;2.40;1.10;;;19.40;76.20;;;;;;5080841;28;20060;-47
2020/12/23 10:49:28;;;;;;;1.80;0.75;;;19.40;76.20;;;;;;5050190;28;20420;-48
2020/12/23 10:51:57;;;;;;;0.98;0.88;;;19.40;76.70;;;;;;5067087;28;20040;-47
2020/12/23 10:54:29;;;;;;;1.45;1.00;;;19.50;76.20;;;;;;5045930;28;20045;-47
2020/12/23 10:56:56;;;;;;;6.82;1.17;;;19.40;76.00;;;;;;5070234;28;20045;-46
2020/12/23 10:59:22;;;;;;;1.20;1.10;;;19.50;76.00;;;;;;5062807;28;20040;-50
2020/12/23 11:01:53;;;;;;;2.80;0.63;;;19.50;75.90;;;;;;5067445;28;20037;-46
2020/12/23 11:04:19;;;;;;;1.05;0.80;;;19.50;75.60;;;;;;5066807;28;20460;-46
2020/12/23 11:06:50;;;;;;;4.15;1.15;;;19.50;75.80;;;;;;5068173;28;20080;-45
2020/12/23 11:09:16;;;;;;;3.60;0.77;;;19.50;75.70;;;;;;5075348;28;20029;-45
2020/12/23 11:11:42;;;;;;;3.30;1.08;;;19.60;75.90;;;;;;4703328;28;10000283;-45
2020/12/23 11:14:07;;;;;;;3.83;1.05;;;19.60;76.60;;;;;;5062005;28;20036;-42
2020/12/23 11:16:33;;;;;;;5.22;0.90;;;19.60;75.80;;;;;;5067552;28;20044;-43
2020/12/23 11:18:59;;;;;;;4.50;0.93;;;19.50;76.00;;;;;;5068402;28;20047;-44
2020/12/23 11:21:24;;;;;;;6.35;1.15;;;19.50;76.80;;;;;;5050474;28;20412;-45
2020/12/23 11:23:50;;;;;;;6.03;1.10;;;19.60;75.90;;;;;;5053481;28;20454;-44
2020/12/23 11:26:22;;;;;;;4.93;1.10;;;19.60;76.00;;;;;;5060538;28;20044;-45
2020/12/23 11:28:47;;;;;;;7.18;0.80;;;19.60;75.90;;;;;;5067465;28;20041;-44
2020/12/23 11:31:13;;;;;;;8.80;1.20;;;19.60;75.80;;;;;;5068291;28;20454;-45
2020/12/23 11:33:39;;;;;;;3.70;0.90;;;19.60;75.80;;;;;;5067257;28;20041;-44
2020/12/23 11:36:05;;;;;;;6.10;1.50;;;19.60;75.60;;;;;;5070667;28;20512;-44
2020/12/23 11:38:31;;;;;;;8.68;1.27;;;19.60;75.40;;;;;;5067126;28;20048;-46
2020/12/23 11:40:56;;;;;;;8.48;1.40;;;19.60;75.50;;;;;;5060688;28;20086;-44
2020/12/23 11:43:22;;;;;;;7.07;1.50;;;19.60;76.30;;;;;;5055498;28;20044;-44
2020/12/23 11:45:47;;;;;;;8.32;1.40;;;19.60;76.10;;;;;;5053622;28;20116;-43
2020/12/23 11:48:13;;;;;;;8.85;1.50;;;19.60;75.90;;;;;;5066416;28;20040;-45
2020/12/23 11:50:39;;;;;;;4.85;1.35;;;19.60;74.00;;;;;;5066780;28;20047;-44
2020/12/23 11:53:04;;;;;;;7.30;1.13;;;19.70;74.90;;;;;;5062387;28;20551;-43
2020/12/23 11:55:31;;;;;;;8.15;1.20;;;19.70;73.70;;;;;;5062771;28;20052;-44
2020/12/23 11:57:57;;;;;;;7.28;1.50;;;19.70;72.50;;;;;;5053459;28;20048;-46
2020/12/23 12:00:22;;;;;;;3.05;1.40;;;19.70;73.40;;;;;;5060749;28;20037;-45
2020/12/23 12:02:48;;;;;;;6.00;1.77;;;19.70;72.70;;;;;;5064407;28;20040;-48
2020/12/23 12:05:14;;;;;;;8.68;1.52;;;19.70;72.70;;;;;;5059136;28;20616;-44
2020/12/23 12:07:40;;;;;;;9.02;1.83;;;19.70;72.40;;;;;;5061501;28;20059;-46
2020/12/23 12:10:06;;;;;;;7.63;1.30;;;19.80;72.50;;;;;;5044278;28;20049;-45
2020/12/23 12:12:32;;;;;;;6.82;1.60;;;19.80;72.40;;;;;;5058237;28;20065;-48
2020/12/23 12:14:57;;;;;;;8.95;1.48;;;19.80;72.30;;;;;;5039629;28;20048;-48
2020/12/23 12:17:23;;;;;;;7.40;1.63;;;19.90;72.50;;;;;;5050628;28;20520;-47
2020/12/23 12:19:53;;;;;;;26.20;1.73;;;19.90;72.70;;;;;;5062046;28;20052;-45
2020/12/23 12:22:18;;;;;;;7.68;1.60;;;19.90;72.70;;;;;;5062938;28;20040;-48
2020/12/23 12:24:44;;;;;;;10.95;1.52;;;19.90;73.10;;;;;;5063375;28;20044;-46
2020/12/23 12:27:10;;;;;;;4.80;1.73;;;19.90;73.00;;;;;;5064259;28;20052;-48
2020/12/23 12:29:36;;;;;;;12.90;1.73;;;19.90;73.00;;;;;;5057784;28;20131;-45
2020/12/23 12:32:02;;;;;;;12.57;1.80;;;19.90;72.70;;;;;;5063733;28;20051;-44
2020/12/23 12:34:28;;;;;;;7.47;1.95;;;20.00;72.60;;;;;;5064983;28;20524;-44
2020/12/23 12:36:54;;;;;;;6.57;1.63;;;20.10;72.40;;;;;;5063444;28;20580;-48
2020/12/23 12:39:20;;;;;;;12.13;1.20;;;20.10;72.30;;;;;;5066938;28;20512;-48
2020/12/23 12:41:46;;;;;;;8.10;1.20;;;20.20;72.40;;;;;;5068011;28;20109;-47
2020/12/23 12:44:11;;;;;;;3.70;0.98;;;20.20;72.40;;;;;;5064459;28;20080;-45
2020/12/23 12:46:37;;;;;;;9.85;1.02;;;20.20;72.10;;;;;;5065210;28;20033;-46
2020/12/23 12:49:03;;;;;;;11.48;2.05;;;20.20;72.00;;;;;;5063897;28;20040;-46
2020/12/23 12:51:28;;;;;;;12.50;2.30;;;20.20;72.10;;;;;;5066324;28;20520;-48
2020/12/23 12:53:54;;;;;;;4.82;2.75;;;20.20;72.30;;;;;;5067524;28;20494;-47
2020/12/23 12:56:23;;;;;;;4.28;2.47;;;20.20;72.30;;;;;;5067156;28;20074;-42
2020/12/23 12:58:49;;;;;;;6.28;1.80;;;20.20;72.30;;;;;;5065272;28;20048;-49
2020/12/23 13:01:15;;;;;;;6.25;1.83;;;20.20;72.10;;;;;;5066637;28;20134;-48
2020/12/23 13:03:40;;;;;;;6.63;1.40;;;20.20;72.30;;;;;;5063084;28;20124;-44
2020/12/23 13:06:06;;;;;;;10.63;1.42;;;20.20;72.50;;;;;;5066054;28;20049;-46
2020/12/23 13:08:31;;;;;;;4.88;2.78;;;20.30;72.50;;;;;;5067113;28;20523;-44
2020/12/23 13:10:57;;;;;;;7.50;1.23;;;20.30;72.40;;;;;;5061525;28;20127;-46
2020/12/23 13:13:22;;;;;;;5.65;1.00;;;20.30;72.50;;;;;;5060937;28;20033;-48
2020/12/23 13:15:48;;;;;;;6.93;1.23;;;20.30;72.30;;;;;;5059910;28;20041;-49
2020/12/23 13:18:15;;;;;;;8.73;1.45;;;20.30;72.30;;;;;;5065933;28;20059;-46
2020/12/23 13:20:41;;;;;;;5.97;1.20;;;20.40;72.40;;;;;;5068008;28;20036;-46
2020/12/23 13:23:06;;;;;;;6.95;1.23;;;20.30;72.50;;;;;;5063361;28;20415;-41
2020/12/23 13:25:32;;;;;;;4.75;0.90;;;20.40;72.60;;;;;;5064344;28;20032;-46
2020/12/23 13:27:57;;;;;;;7.50;1.00;;;20.40;72.50;;;;;;5065881;28;20492;-48
2020/12/23 13:30:23;;;;;;;12.25;1.10;;;20.40;72.30;;;;;;5065458;28;20028;-46
2020/12/23 13:32:49;;;;;;;4.03;1.10;;;20.40;72.10;;;;;;5066630;28;20516;-47
2020/12/23 13:35:14;;;;;;;3.08;0.98;;;20.40;72.10;;;;;;5058405;28;20115;-46
2020/12/23 13:37:40;;;;;;;4.30;1.45;;;20.40;72.80;;;;;;5064174;28;20086;-51
2020/12/23 13:40:05;;;;;;;2.88;1.02;;;20.40;71.80;;;;;;5067608;28;20028;-46
2020/12/23 13:42:31;;;;;;;3.38;1.13;;;20.40;72.40;;;;;;5068784;28;20428;-47
2020/12/23 13:44:56;;;;;;;2.92;1.13;;;20.40;72.10;;;;;;5062595;28;20033;-46
2020/12/23 13:47:22;;;;;;;4.00;1.17;;;20.30;72.30;;;;;;5063008;28;20417;-47
2020/12/23 13:49:49;;;;;;;5.40;1.30;;;20.30;72.40;;;;;;5060937;28;20091;-47
2020/12/23 13:52:14;;;;;;;5.70;1.48;;;20.30;72.50;;;;;;5064350;28;20108;-47
2020/12/23 13:54:40;;;;;;;6.15;1.77;;;20.40;72.30;;;;;;5065202;28;20032;-45
2020/12/23 13:57:05;;;;;;;3.42;1.05;;;20.30;72.40;;;;;;5060615;28;20416;-48
2020/12/23 13:59:31;;;;;;;6.40;1.45;;;20.30;73.40;;;;;;5060201;28;20045;-47
2020/12/23 14:01:57;;;;;;;19.70;1.20;;;20.30;72.60;;;;;;5064050;28;20051;-43
2020/12/23 14:04:22;;;;;;;8.32;1.58;;;20.30;72.70;;;;;;5068386;28;20044;-46
2020/12/23 14:06:48;;;;;;;3.50;1.60;;;20.20;72.60;;;;;;5069547;28;20028;-48
2020/12/23 14:09:13;;;;;;;5.07;1.75;;;20.20;72.20;;;;;;5060502;28;20095;-43
2020/12/23 14:11:39;;;;;;;3.47;1.60;;;20.20;71.50;;;;;;5058842;28;20040;-46
2020/12/23 14:14:04;;;;;;;4.20;1.55;;;20.20;70.70;;;;;;5057713;28;20045;-45
2020/12/23 14:16:30;;;;;;;7.82;1.75;;;20.20;69.90;;;;;;5053968;28;20106;-45
2020/12/23 14:18:55;;;;;;;5.50;1.92;;;20.20;68.80;;;;;;5051897;28;20508;-44
2020/12/23 14:21:25;;;;;;;5.18;1.27;;;20.20;69.30;;;;;;5067744;28;20044;-45
2020/12/23 14:23:50;;;;;;;8.75;1.60;;;20.20;69.50;;;;;;5066965;28;20526;-43
2020/12/23 14:26:16;;;;;;;3.95;1.63;;;20.10;69.00;;;;;;5070644;28;20036;-41
2020/12/23 14:28:41;;;;;;;5.82;1.83;;;20.10;68.80;;;;;;5063421;28;20526;-42
2020/12/23 14:31:07;;;;;;;6.53;1.75;;;20.20;69.70;;;;;;5065441;28;20044;-46
2020/12/23 14:33:33;;;;;;;5.82;1.80;;;20.10;69.40;;;;;;5054171;28;20045;-43
2020/12/23 14:35:58;;;;;;;4.15;1.55;;;20.10;69.70;;;;;;5057800;28;20056;-42
2020/12/23 14:38:24;;;;;;;5.55;1.90;;;20.20;69.80;;;;;;5069112;28;20052;-42
2020/12/23 14:40:50;;;;;;;4.10;1.42;;;20.20;69.60;;;;;;5061954;28;20041;-44
2020/12/23 14:43:15;;;;;;;4.65;1.48;;;20.10;69.70;;;;;;5055437;28;20033;-44
2020/12/23 14:45:42;;;;;;;3.33;1.45;;;20.10;70.00;;;;;;5055241;28;20028;-44
2020/12/23 14:48:07;;;;;;;3.75;1.30;;;20.20;70.40;;;;;;5056568;28;20095;-43
2020/12/23 14:50:33;;;;;;;6.13;1.55;;;20.20;70.40;;;;;;5059637;28;20121;-44
2020/12/23 14:52:59;;;;;;;2.55;1.38;;;20.20;70.50;;;;;;5063659;28;20049;-47
2020/12/23 14:55:24;;;;;;;7.60;1.48;;;20.20;70.60;;;;;;5056443;28;20102;-43
2020/12/23 14:57:50;;;;;;;7.00;0.98;;;20.10;70.70;;;;;;5059344;28;20424;-47
2020/12/23 15:00:15;;;;;;;3.88;2.10;;;20.20;71.00;;;;;;5068099;28;20054;-46
2020/12/23 15:02:41;;;;;;;4.78;1.70;;;20.10;70.80;;;;;;5071267;28;20044;-42
2020/12/23 15:05:06;;;;;;;3.47;0.90;;;20.10;71.30;;;;;;5066089;28;20114;-45
2020/12/23 15:07:32;;;;;;;6.75;1.67;;;20.10;71.30;;;;;;5066617;28;20059;-44
2020/12/23 15:09:58;;;;;;;6.78;1.17;;;20.10;71.30;;;;;;5068675;28;20119;-45
2020/12/23 15:12:24;;;;;;;2.70;0.90;;;20.10;71.30;;;;;;5055399;28;20055;-45
2020/12/23 15:14:50;;;;;;;2.22;0.88;;;20.10;71.40;;;;;;5042762;28;20084;-49
2020/12/23 15:17:15;;;;;;;3.80;1.58;;;20.10;71.30;;;;;;5052781;28;20532;-44
2020/12/23 15:19:50;;;;;;;2.10;0.91;;;20.10;71.40;;;;;;5032529;28;10001642;-45
2020/12/23 15:22:16;;;;;;;4.07;1.25;;;20.10;71.60;;;;;;5055644;28;20254;-45
2020/12/23 15:24:41;;;;;;;6.45;1.80;;;20.00;71.40;;;;;;5067279;28;20499;-45
2020/12/23 15:27:07;;;;;;;3.75;1.08;;;20.10;71.30;;;;;;5064970;28;20037;-42
2020/12/23 15:29:32;;;;;;;4.47;1.55;;;20.10;71.50;;;;;;5061838;28;20048;-44
2020/12/23 15:31:59;;;;;;;2.47;1.08;;;20.00;71.30;;;;;;5068246;28;20036;-43
2020/12/23 15:34:25;;;;;;;17.45;1.58;;;20.00;71.40;;;;;;5068106;28;20048;-44
2020/12/23 15:36:51;;;;;;;6.18;1.40;;;20.10;71.50;;;;;;5055887;28;20055;-41
2020/12/23 15:39:16;;;;;;;4.63;1.45;;;20.10;71.10;;;;;;5069643;28;20041;-47
2020/12/23 15:41:46;;;;;;;2.88;1.10;;;20.10;71.30;;;;;;5061168;28;20064;-50
2020/12/23 15:44:11;;;;;;;3.08;1.15;;;20.10;71.40;;;;;;5069105;28;20110;-50
2020/12/23 15:46:37;;;;;;;5.32;1.35;;;20.00;71.30;;;;;;5058011;28;20611;-45
2020/12/23 15:49:02;;;;;;;2.17;1.10;;;20.00;71.70;;;;;;5068037;28;20127;-51
2020/12/23 15:51:28;;;;;;;2.13;1.17;;;20.00;71.70;;;;;;5063622;28;20055;-45
2020/12/23 15:53:53;;;;;;;2.42;0.80;;;20.00;71.70;;;;;;5063294;28;20090;-58
2020/12/23 15:56:20;;;;;;;2.85;0.73;;;20.10;71.20;;;;;;5059685;28;20052;-41
2020/12/23 15:58:45;;;;;;;1.75;0.73;;;20.30;70.90;;;;;;5063358;28;20041;-40
2020/12/23 16:01:12;;;;;;;2.97;0.70;;;20.20;70.90;;;;;;5068840;28;20428;-42
2020/12/23 16:03:38;;;;;;;2.80;1.20;;;20.20;71.00;;;;;;5078350;28;20052;-43
2020/12/23 16:06:04;;;;;;;6.03;0.90;;;20.20;71.00;;;;;;5055277;28;20405;-42
2020/12/23 16:08:29;;;;;;;2.92;1.00;;;20.20;71.10;;;;;;5052813;28;20036;-42
2020/12/23 16:10:55;;;;;;;4.63;1.13;;;20.20;71.20;;;;;;5058213;28;20045;-41
2020/12/23 16:13:21;;;;;;;4.90;1.10;;;20.30;71.30;;;;;;5061914;28;20028;-42
2020/12/23 16:15:47;;;;;;;4.63;0.63;;;20.20;71.20;;;;;;5051117;28;20049;-41
2020/12/23 16:18:13;;;;;;;3.65;1.08;;;20.20;71.30;;;;;;5049520;28;20033;-40
2020/12/23 16:20:39;;;;;;;1.88;0.77;;;20.20;71.20;;;;;;5062844;28;20504;-40
2020/12/23 16:23:04;;;;;;;5.05;1.73;;;20.20;71.30;;;;;;5043468;28;20026;-40
2020/12/23 16:25:30;;;;;;;2.20;1.00;;;20.20;71.30;;;;;;5046004;28;20083;-41
2020/12/23 16:27:55;;;;;;;2.85;0.77;;;20.20;71.30;;;;;;5057900;28;20449;-40
2020/12/23 16:30:21;;;;;;;1.60;0.80;;;20.20;71.40;;;;;;5065827;28;20048;-44
2020/12/23 16:32:47;;;;;;;3.25;1.00;;;20.20;71.50;;;;;;5063359;28;20036;-41
2020/12/23 16:35:13;;;;;;;1.67;0.77;;;20.20;71.40;;;;;;5063033;28;20129;-42
2020/12/23 16:37:39;;;;;;;3.67;0.93;;;20.20;71.40;;;;;;5063597;28;20135;-39
2020/12/23 16:40:04;;;;;;;4.25;1.08;;;20.20;71.40;;;;;;5063099;28;20043;-41
2020/12/23 16:42:30;;;;;;;7.57;1.00;;;20.10;71.60;;;;;;5050858;28;20519;-42
2020/12/23 16:44:56;;;;;;;3.28;1.00;;;20.10;71.70;;;;;;5056450;28;20036;-40
2020/12/23 16:47:21;;;;;;;3.17;0.80;;;20.20;71.70;;;;;;5057506;28;20044;-40
2020/12/23 16:49:47;;;;;;;4.68;1.02;;;20.10;71.70;;;;;;5065560;28;20033;-40
2020/12/23 16:52:12;;;;;;;4.00;0.70;;;20.20;71.80;;;;;;5066351;28;20050;-41
2020/12/23 16:54:38;;;;;;;3.72;1.00;;;20.20;71.60;;;;;;5066036;28;20068;-42
2020/12/23 16:57:05;;;;;;;4.95;1.20;;;20.20;71.50;;;;;;5067899;28;20051;-41
2020/12/23 16:59:33;;;;;;;3.10;0.88;;;20.20;71.40;;;;;;5064119;28;20093;-42
2020/12/23 17:02:03;;;;;;;4.60;1.02;;;20.10;71.30;;;;;;5059330;28;20049;-42
2020/12/23 17:04:28;;;;;;;4.55;1.05;;;20.20;71.10;;;;;;5063148;28;20048;-41
2020/12/23 17:06:54;;;;;;;11.73;0.90;;;20.10;71.10;;;;;;5066393;28;20815;-41
2020/12/23 17:09:19;;;;;;;5.10;0.90;;;20.20;71.10;;;;;;5064704;28;20044;-41
2020/12/23 17:11:46;;;;;;;1.73;0.68;;;20.10;70.90;;;;;;5061047;28;20557;-39
2020/12/23 17:14:12;;;;;;;3.78;1.15;;;20.10;71.20;;;;;;5066851;28;20041;-40
2020/12/23 17:16:37;;;;;;;4.15;1.00;;;20.10;71.10;;;;;;5065147;28;20072;-40
2020/12/23 17:19:03;;;;;;;1.95;1.05;;;20.00;71.00;;;;;;5052239;28;20495;-41
2020/12/23 17:21:32;;;;;;;2.35;0.73;;;20.00;70.90;;;;;;5065883;28;20040;-41
2020/12/23 17:23:58;;;;;;;1.77;0.85;;;20.00;71.10;;;;;;5058512;28;20094;-41
2020/12/23 17:26:28;;;;;;;1.60;0.98;;;19.90;71.10;;;;;;5059536;28;20525;-41
2020/12/23 17:28:53;;;;;;;1.55;0.98;;;20.00;71.20;;;;;;5057141;28;20095;-38
2020/12/23 17:31:20;;;;;;;3.28;1.00;;;19.90;71.20;;;;;;5057387;28;20090;-39
2020/12/23 17:33:46;;;;;;;2.38;0.85;;;19.90;71.10;;;;;;5068399;28;20060;-39
2020/12/23 17:36:11;;;;;;;3.05;1.02;;;19.90;71.10;;;;;;5054131;28;20052;-39
2020/12/23 17:38:37;;;;;;;4.88;0.95;;;19.80;71.20;;;;;;5072229;28;20527;-40
2020/12/23 17:41:02;;;;;;;1.95;0.85;;;19.90;71.20;;;;;;5065559;28;20060;-40
2020/12/23 17:43:28;;;;;;;2.42;1.02;;;19.80;71.10;;;;;;5066541;28;20048;-40
2020/12/23 17:45:54;;;;;;;2.38;1.08;;;19.80;71.00;;;;;;5055682;28;20040;-40
2020/12/23 17:48:19;;;;;;;2.40;0.90;;;19.90;71.00;;;;;;5070088;28;20068;-40
2020/12/23 17:50:45;;;;;;;3.42;1.02;;;19.80;70.90;;;;;;5070889;28;20520;-39
2020/12/23 17:53:11;;;;;;;3.17;1.10;;;19.80;71.00;;;;;;5060224;28;20055;-40
2020/12/23 17:55:37;;;;;;;3.17;1.23;;;19.80;70.90;;;;;;5061076;28;20075;-39
2020/12/23 17:58:02;;;;;;;2.47;1.13;;;19.80;70.90;;;;;;5065516;28;20045;-40
2020/12/23 18:00:28;;;;;;;2.17;1.20;;;19.80;70.90;;;;;;5056808;28;20045;-39
2020/12/23 18:02:55;;;;;;;2.55;1.23;;;19.70;70.80;;;;;;5059523;28;20131;-41
2020/12/23 18:05:21;;;;;;;5.57;1.15;;;19.80;70.90;;;;;;5063103;28;20052;-40
2020/12/23 18:07:46;;;;;;;5.50;1.83;;;19.80;70.90;;;;;;5059792;28;20040;-40
2020/12/23 18:10:12;;;;;;;2.63;1.33;;;19.80;70.90;;;;;;5066825;28;20123;-40
2020/12/23 18:12:37;;;;;;;3.78;1.13;;;19.80;71.70;;;;;;5071591;28;20086;-40
2020/12/23 18:15:12;;;;;;;2.97;1.34;;;19.80;71.40;;;;;;5057460;28;10000699;-40
2020/12/23 18:17:38;;;;;;;4.03;1.60;;;19.80;70.70;;;;;;5059869;28;20679;-40
2020/12/23 18:20:04;;;;;;;4.68;1.38;;;19.80;70.80;;;;;;5057315;28;20165;-40
2020/12/23 18:22:30;;;;;;;5.18;1.20;;;19.80;70.90;;;;;;5061790;28;20128;-40
2020/12/23 18:24:55;;;;;;;3.38;1.40;;;19.70;70.90;;;;;;5065134;28;20045;-40
2020/12/23 18:27:21;;;;;;;2.00;1.20;;;19.70;71.00;;;;;;5066710;28;20029;-41
2020/12/23 18:29:47;;;;;;;5.60;1.52;;;19.70;71.20;;;;;;5052453;28;20140;-41
2020/12/23 18:32:13;;;;;;;2.58;1.40;;;19.60;71.40;;;;;;5060977;28;20596;-38
2020/12/23 18:34:38;;;;;;;5.00;1.50;;;19.60;71.40;;;;;;5055981;28;20056;-41
2020/12/23 18:37:04;;;;;;;1.70;1.27;;;19.60;71.50;;;;;;5053659;28;20447;-41
2020/12/23 18:39:29;;;;;;;3.30;1.50;;;19.60;71.60;;;;;;5064063;28;20136;-44
2020/12/23 18:41:55;;;;;;;3.75;1.88;;;19.60;71.60;;;;;;5057280;28;20527;-41
2020/12/23 18:44:21;;;;;;;2.22;1.40;;;19.60;71.50;;;;;;5058689;28;20103;-38
2020/12/23 18:46:47;;;;;;;5.13;1.55;;;19.60;71.50;;;;;;5059884;28;20053;-40
2020/12/23 18:49:13;;;;;;;5.43;1.90;;;19.70;71.50;;;;;;5062687;28;20123;-40
2020/12/23 18:51:39;;;;;;;2.35;1.40;;;19.70;71.60;;;;;;5061189;28;20046;-41
2020/12/23 18:54:04;;;;;;;2.95;1.58;;;19.70;71.50;;;;;;5060787;28;20131;-45
2020/12/23 18:56:30;;;;;;;7.28;2.65;;;19.70;71.40;;;;;;5054335;28;20061;-41
2020/12/23 18:58:56;;;;;;;8.05;3.67;;;19.70;71.40;;;;;;5062601;28;20033;-41
2020/12/23 19:01:22;;;;;;;6.63;3.90;;;19.70;71.60;;;;;;5055142;28;20049;-39
2020/12/23 19:03:47;;;;;;;9.27;3.58;;;19.70;71.70;;;;;;5047650;28;20072;-40
2020/12/23 19:06:13;;;;;;;6.50;3.60;;;19.70;71.70;;;;;;5054788;28;20470;-42
2020/12/23 19:08:38;;;;;;;9.10;4.22;;;19.70;71.60;;;;;;5079168;28;20055;-40
2020/12/23 19:11:04;;;;;;;11.18;3.78;;;19.70;71.50;;;;;;5066367;28;20127;-41
2020/12/23 19:13:30;;;;;;;9.75;4.32;;;19.70;71.40;;;;;;5060911;28;20055;-41
2020/12/23 19:15:55;;;;;;;10.10;3.60;;;19.70;71.30;;;;;;5062296;28;20048;-40
2020/12/23 19:18:21;;;;;;;4.68;3.60;;;19.80;71.20;;;;;;5050664;28;20066;-40
2020/12/23 19:20:47;;;;;;;9.70;4.10;;;19.80;71.20;;;;;;5063615;28;20052;-40
2020/12/23 19:23:14;;;;;;;13.95;3.85;;;19.70;71.20;;;;;;5053399;28;20048;-39
2020/12/23 19:25:40;;;;;;;8.55;2.75;;;19.70;71.10;;;;;;5063466;28;20060;-41
2020/12/23 19:28:06;;;;;;;10.55;3.58;;;19.70;71.10;;;;;;5062223;28;20044;-40
2020/12/23 19:30:31;;;;;;;6.85;3.17;;;19.70;72.00;;;;;;5054316;28;20037;-42
2020/12/23 19:32:59;;;;;;;10.02;3.55;;;19.70;71.40;;;;;;5066148;28;20024;-39
2020/12/23 19:35:25;;;;;;;7.93;3.33;;;19.70;71.50;;;;;;5063494;28;20079;-40
2020/12/23 19:38:04;;;;;;;12.07;3.10;;;19.70;71.30;;;;;;5064998;28;20037;-43
2020/12/23 19:40:29;;;;;;;15.23;3.90;;;19.70;71.50;;;;;;5061811;28;20043;-40
2020/12/23 19:42:56;;;;;;;14.65;3.20;;;19.80;73.60;;;;;;5063981;28;20032;-44
2020/12/23 19:45:23;;;;;;;15.50;3.95;;;19.80;74.00;;;;;;5064735;28;20464;-40
2020/12/23 19:48:07;;;;;;;9.77;3.00;;;19.80;74.60;;;;;;5062249;28;20068;-41
2020/12/23 19:50:33;;;;;;;13.30;2.27;;;19.80;73.90;;;;;;5064012;28;20068;-40
2020/12/23 19:52:59;;;;;;;7.93;2.75;;;19.80;73.50;;;;;;5056739;28;20128;-39
2020/12/23 19:55:25;;;;;;;7.13;2.92;;;19.80;73.30;;;;;;5065129;28;20091;-65
2020/12/23 19:57:51;;;;;;;4.53;2.47;;;19.80;73.10;;;;;;5056081;28;20036;-39
2020/12/23 20:00:16;;;;;;;5.95;2.55;;;19.90;72.60;;;;;;5065881;28;20071;-39
2020/12/23 20:02:42;;;;;;;12.48;3.00;;;19.90;72.40;;;;;;5062439;28;20040;-39
2020/12/23 20:05:08;;;;;;;7.85;3.40;;;19.90;72.30;;;;;;5059214;28;20060;-40
2020/12/23 20:07:33;;;;;;;5.45;2.83;;;19.90;72.40;;;;;;5059765;28;20049;-39
2020/12/23 20:09:59;;;;;;;6.18;3.10;;;19.90;72.30;;;;;;5063923;28;20094;-42
2020/12/23 20:12:25;;;;;;;8.10;3.00;;;19.90;72.20;;;;;;5062917;28;20095;-46
2020/12/23 20:14:50;;;;;;;7.97;2.67;;;19.90;72.30;;;;;;5061756;28;20057;-46
2020/12/23 20:17:16;;;;;;;6.32;2.58;;;19.90;72.30;;;;;;5060768;28;20028;-43
2020/12/23 20:19:42;;;;;;;13.13;2.92;;;19.90;72.20;;;;;;5064420;28;20536;-46
2020/12/23 20:22:08;;;;;;;7.47;2.53;;;19.90;72.00;;;;;;5063641;28;20021;-47
2020/12/23 20:24:33;;;;;;;6.32;2.30;;;19.90;72.00;;;;;;5059923;28;20045;-45
2020/12/23 20:27:02;;;;;;;5.93;2.25;;;19.90;71.40;;;;;;5060581;28;20041;-46
2020/12/23 20:29:27;;;;;;;8.73;2.60;;;19.90;71.80;;;;;;5054550;28;20056;-47
2020/12/23 20:31:54;;;;;;;5.75;1.90;;;19.90;71.90;;;;;;5063627;28;20404;-44
2020/12/23 20:34:19;;;;;;;5.78;1.80;;;19.90;71.60;;;;;;5056210;28;20036;-45
2020/12/23 20:36:46;;;;;;;8.45;2.00;;;19.90;71.70;;;;;;5061139;28;20691;-45
2020/12/23 20:39:12;;;;;;;4.28;1.52;;;19.90;71.60;;;;;;5062096;28;20717;-43
2020/12/23 20:41:37;;;;;;;6.88;2.83;;;19.90;71.40;;;;;;5073823;28;20163;-44
2020/12/23 20:44:03;;;;;;;6.75;1.85;;;19.90;71.20;;;;;;5061309;28;21454;-46
2020/12/23 20:46:34;;;;;;;3.65;1.80;;;19.90;71.00;;;;;;5059813;28;20044;-45
2020/12/23 20:49:01;;;;;;;7.75;2.20;;;19.90;70.60;;;;;;5064099;28;20381;-46
2020/12/23 20:51:30;;;;;;;3.17;2.70;;;19.90;70.80;;;;;;5057154;28;20044;-45
2020/12/23 20:53:55;;;;;;;10.50;2.22;;;19.90;70.70;;;;;;5048250;28;20056;-46
2020/12/23 20:56:21;;;;;;;3.30;1.42;;;19.90;70.90;;;;;;5059228;28;20056;-47
2020/12/23 20:58:46;;;;;;;2.92;2.00;;;20.00;70.10;;;;;;5060254;28;20056;-38
2020/12/23 21:01:12;;;;;;;3.60;1.90;;;20.00;70.60;;;;;;5062985;28;20089;-40
2020/12/23 21:03:38;;;;;;;5.35;2.40;;;20.00;70.40;;;;;;5057237;28;20699;-41
2020/12/23 21:06:09;;;;;;;2.75;1.52;;;20.00;70.40;;;;;;5064943;28;20407;-42
2020/12/23 21:08:35;;;;;;;6.03;1.90;;;20.00;70.10;;;;;;5056436;28;20068;-42
2020/12/23 21:11:02;;;;;;;3.15;1.63;;;20.00;70.30;;;;;;5059921;28;20102;-41
2020/12/23 21:13:28;;;;;;;4.57;2.13;;;20.00;70.10;;;;;;5062095;28;20637;-40
2020/12/23 21:15:53;;;;;;;2.47;1.95;;;20.00;70.80;;;;;;5059332;28;20056;-44
2020/12/23 21:18:19;;;;;;;3.75;1.63;;;20.10;70.50;;;;;;5063924;28;20515;-40
2020/12/23 21:20:45;;;;;;;5.00;2.05;;;20.10;70.30;;;;;;5054665;28;20441;-39
2020/12/23 21:23:10;;;;;;;5.05;2.05;;;20.10;70.70;;;;;;5055694;28;20049;-40
2020/12/23 21:25:36;;;;;;;3.92;1.33;;;20.10;71.30;;;;;;5061100;28;20456;-44
2020/12/23 21:28:03;;;;;;;3.80;1.60;;;20.10;70.40;;;;;;5061045;28;20045;-39
2020/12/23 21:30:28;;;;;;;5.05;2.05;;;20.10;70.40;;;;;;5058400;28;20062;-43
2020/12/23 21:32:54;;;;;;;7.45;1.90;;;20.10;70.50;;;;;;5061443;28;20393;-43
2020/12/23 21:35:21;;;;;;;2.83;1.70;;;20.10;70.60;;;;;;5059883;28;20044;-40
2020/12/23 21:37:46;;;;;;;2.80;1.35;;;20.10;70.70;;;;;;5058420;28;20096;-39
2020/12/23 21:40:12;;;;;;;5.80;1.90;;;20.20;71.00;;;;;;5062883;28;20059;-50
2020/12/23 21:42:38;;;;;;;3.85;1.33;;;20.10;70.90;;;;;;5061012;28;20365;-41
2020/12/23 21:45:03;;;;;;;4.82;1.67;;;20.10;71.90;;;;;;5059656;28;20531;-41
2020/12/23 21:47:29;;;;;;;6.93;2.00;;;20.10;71.10;;;;;;5055752;28;20127;-42
2020/12/23 21:49:54;;;;;;;1.75;1.65;;;20.10;71.20;;;;;;5062649;28;20123;-41
2020/12/23 21:52:20;;;;;;;6.10;2.08;;;20.10;71.30;;;;;;5059702;28;20045;-42
2020/12/23 21:54:46;;;;;;;2.95;1.75;;;20.10;71.50;;;;;;5062439;28;20047;-40